Terminal Aerodrome Forecast
Issued by NWS

Home | Current Version | Previous Version | Text Only | Print | Product List | Glossary On
Versions: 1 2 3 4 5 6 7 8 9 10 11 12 13 14 15 16 17 18 19 20 21 22 23 24 25 26 27 28
455
FTUS41 KPBZ 130132 AAA
TAFAGC
TAF AMD
KAGC 130132Z 1302/1324 27012G22KT 2SM -SHSN OVC015
      TEMPO 1302/1304 30015G30KT 1/2SM SHSN OVC007
     FM130700 30012G25KT 4SM -SHSN OVC025=

USA.gov is the U.S. government's official web portal to all federal, state and local government web resources and services.